Ethridge, Montana
Current Conditions -  °F | °C
As of 5:56 PM on Monday 24 Nov 2014 (Local Time) from KCTB Reporting Station
Scattered Clouds Scattered Clouds  
Wind Chill: 24°   Ceiling: Unl
Heat Index: 36°   Visibility: 10mi
Dew Point: 19°   Wind: 23mph
Humidity: 50%   Direction: 250°WSW
Pressure: 29.96"   Gusts: 35mph
Location:  48.56°N, 112.12°W
Report Text: KCTB 250056Z AUTO 25020G30KT 10SM SCT100 SCT120 02/M07 A2996 RMK AO2 PK WND 25032/0034 SLP173 T00221072
Loading
Personal Weather Stations






























Interactive Weather Map New forecast layout! Learn more

10-Day Weather Forecast

Advertisements
Track Severe Weather on mobile